Главная страница
METAR-TAF:

METAR-TAF

Аэропорты :

Мариехамн, Финляндия

широта: 60-07N, долгота: 019-54E, высота над уровнем моря: 6 м

Текущие метеонаблюдения

Эта сводка был подготовлена 30 минут назад, в 16:50 UTC
Ветер 1 Узел переменных направлений
Температура -5°C
Влажность 73%
Давление 1002 hPa
Видимость 10 км и более
Нет облачности ниже 1500 м, и нет кучево-дождевой облачности

METAR: EFMA 281650Z VRB01KT CAVOK M05/M09 Q1002

Время: 19:20 (17:20 UTC)

Прогноз

Эта сводка был подготовлена 2 часа и 47 минут назад, в 14:33 UTC
Прогноз действительный с 28-го 15 UTC до 28-го 24 UTC
Ветер 6 Узел от западно-северо-западный
Видимость 10 км и более
Отдельные облака на высоте 4000 фута

TAF: EFMA 281433Z 2815/2824 29006KT 9999 SCT040

Метеонаблюдения и прогнозы для более 4000 аэропортов (сводки METAR и TAF).

Имеющиеся станции представлены на карте желтыми и красными точками.

Чтобы увидеть название станции, наведите на нее мышь.

Затем щелкните, чтобы увидеть метеонаблюдения и метеопрогнозы.

Управление картой: чтобы увеличить масштаб, щелкните зеленые кнопки с черным крестиком; чтобы уменьшить масштаб, щелкните зеленую кнопку с тире; для просмотра соседних карт щелкайте зеленые стрелки.


METAR-TAF: